Riverton, WY (82501)

12:47 PM MDT on July 29, 2016 (GMT -0600)
| | Change Station
Active Advisory: Fire Weather Watch

Elev -9999 ft 0.00 °N, 0.00 °E | Updated

Partly Cloudy
Partly Cloudy
86 °F
Feels Like 86 °F
N
7
Wind Variable Wind from ENE
Gusts mph

Today
High -- | Low -- °F
--% Chance of Precip.
Yesterday
High -- | Low -- °F
Precip. -- in
Pressure 29.94 in
Visibility 10.0 miles
Clouds Clear
Dew Point 41 °F
Humidity 21%
Rainfall --
Snow Depth Not available.
6:01 AM 8:37 PM
Waning Crescent, 20% visible
METAR KRIW 291753Z AUTO 13008KT 070V180 10SM CLR 26/11 A3015 RMK AO2 SLP138 T02610106 10261 20128 58016
Pressure 29.94 in
Visibility 10.0 miles
Clouds Clear
Dew Point 41 °F
Humidity 21%
Rainfall --
Snow Depth Not available.
6:01 AM 8:37 PM
Waning Crescent, 20% visible
METAR KRIW 291753Z AUTO 13008KT 070V180 10SM CLR 26/11 A3015 RMK AO2 SLP138 T02610106 10261 20128 58016

10-Day Weather Forecast

Almanac

Astronomy

Jul. 29, 2016 Rise Set
Actual Time
Civil Twilight
Nautical Twilight
Astronomical Twilight
Moon
Length of Visible Light
Length of Day
Tomorrow will be .
, % of the Moon is Illuminated

Today's Extremes

State Highs State Lows

Community

WunderPhotos

Upload Photos

1,928,393 photos uploaded!

WunderBlog® & News

Nearby

Air Quality

  Air Quality AQ Index Pollutant
Not available.

Snow Depth

Station Depth Elevation

Earthquake Activity

City Distance Mag. Time & Date
Minimum magnitude displayed is 2.5.

Coastal Water Temperatures

Place Temperature

Stations

Nearby Weather Stations

Station Location Temp. Windchill Dew Point Humidity Wind Precip. Elev Updated Type
                   

Watches & Warnings

Fire Weather Watch
Issued: 12:10 PM MDT Jul. 29, 2016 – National Weather Service

... Fire Weather Watch remains in effect from Saturday afternoon
through Saturday evening for low rh's... hot temperatures... breezy
conditions... isolated dry lightning storms and a Haines index of
6 for fire weather zone 283...

* affected area... fire weather zone 283.

* Wind... northwest 10 to 20 mph with gusts 25 to 30 mph.

* Humidity... 8 to 12 percent.

* Thunderstorms... isolated dry lightning storms mainly from
Crowheart to DuBois in the late afternoon and evening.

* Haines... 5 to 6.

* Highest threat... is located from Crowheart to DuBois.

* Impacts... any fires that develop will likely spread rapidly.
Outdoor burning is not recommended.

Precautionary/preparedness actions...

A Fire Weather Watch means that critical fire weather conditions
are forecast to occur. Listen for later forecasts and possible
red flag warnings.



Skrbac